Time;durP1;ratioP1;P1;durP2;ratioP2;P2;SDS_P1;SDS_P2;PMS_P1;PMS_P2;Temp;Humidity;BMP_temperature;BMP_pressure;BME280_temperature;BME280_humidity;BME280_pressure;Samples;Min_cycle;Max_cycle;Signal;HPM_P1;HPM_P2
2023/09/24 00:00:13;;;;;;;0.52;0.52;;;;;;;18.99;66.84;99845.66;5350482;26;34797;-83
2023/09/24 00:02:41;;;;;;;1.40;0.73;;;;;;;19.25;66.05;99842.75;5349845;26;33333;-83
2023/09/24 00:05:11;;;;;;;1.40;1.30;;;;;;;19.01;66.80;99835.69;5349794;26;32940;-82
2023/09/24 00:07:40;;;;;;;0.85;0.30;;;;;;;18.99;66.27;99837.62;5331623;26;33360;-82
2023/09/24 00:10:08;;;;;;;1.58;0.70;;;;;;;19.01;66.57;99829.47;5350233;26;34697;-82
2023/09/24 00:12:36;;;;;;;0.50;0.50;;;;;;;18.88;67.21;99837.59;5349846;26;34385;-83
2023/09/24 00:15:04;;;;;;;0.47;0.47;;;;;;;19.06;66.58;99833.50;5368728;26;34541;-82
2023/09/24 00:17:32;;;;;;;1.37;0.62;;;;;;;18.87;66.91;99838.56;5350102;26;32975;-82
2023/09/24 00:20:00;;;;;;;0.10;0.10;;;;;;;19.14;66.01;99822.19;5348469;26;34180;-83
2023/09/24 00:22:28;;;;;;;0.52;0.50;;;;;;;18.89;67.19;99815.22;5349712;26;32685;-82
2023/09/24 00:24:58;;;;;;;0.93;0.73;;;;;;;18.90;66.81;99809.78;5368397;26;34283;-83
2023/09/24 00:27:25;;;;;;;0.88;0.88;;;;;;;18.88;67.12;99834.91;5350312;26;33900;-83
2023/09/24 00:29:53;;;;;;;0.20;0.10;;;;;;;18.88;66.47;99835.78;5368080;26;34252;-83
2023/09/24 00:32:21;;;;;;;0.17;0.15;;;;;;;18.81;66.87;99839.06;5349941;26;33493;-83
2023/09/24 00:34:49;;;;;;;2.62;1.40;;;;;;;18.84;66.32;99838.81;5367890;26;34640;-82
2023/09/24 00:37:18;;;;;;;1.48;0.45;;;;;;;18.54;67.59;99847.34;5368918;26;34675;-83
2023/09/24 00:39:46;;;;;;;0.65;0.62;;;;;;;18.57;67.81;99852.47;5368295;26;34207;-82
2023/09/24 00:42:13;;;;;;;0.70;0.50;;;;;;;18.80;66.89;99858.72;5330167;26;32685;-82
2023/09/24 00:44:41;;;;;;;0.93;0.90;;;;;;;18.92;66.47;99873.84;5368424;26;33788;-83
2023/09/24 00:47:09;;;;;;;1.33;0.28;;;;;;;18.88;66.61;99867.03;5367966;26;34403;-83
2023/09/24 00:49:37;;;;;;;0.60;0.60;;;;;;;19.14;65.14;99868.56;5368506;26;33451;-83
2023/09/24 00:52:05;;;;;;;0.17;0.17;;;;;;;18.92;65.34;99868.50;5349502;26;33578;-82
2023/09/24 00:54:33;;;;;;;1.12;1.10;;;;;;;18.79;66.50;99863.22;5349827;26;33216;-81
2023/09/24 00:57:00;;;;;;;0.57;0.50;;;;;;;18.78;66.29;99849.97;5349743;26;32973;-82
2023/09/24 00:59:29;;;;;;;2.15;0.60;;;;;;;18.72;66.10;99843.28;5349382;26;33619;-82
2023/09/24 01:01:59;;;;;;;0.13;0.13;;;;;;;18.94;65.24;99855.84;5349290;26;33141;-82
2023/09/24 01:04:27;;;;;;;2.20;0.45;;;;;;;18.97;64.92;99855.63;5349600;26;33752;-81
2023/09/24 01:06:56;;;;;;;1.08;0.57;;;;;;;18.72;65.95;99845.97;5312302;26;34856;-82
2023/09/24 01:09:24;;;;;;;0.10;0.10;;;;;;;18.80;65.46;99848.91;5350161;26;33836;-82
2023/09/24 01:11:52;;;;;;;0.65;0.65;;;;;;;18.67;66.04;99851.63;5349490;26;32701;-82
2023/09/24 01:14:21;;;;;;;0.77;0.68;;;;;;;18.65;66.36;99842.00;5350096;26;34366;-82
2023/09/24 01:16:49;;;;;;;1.10;0.70;;;;;;;18.85;65.59;99832.50;5367219;26;33843;-82
2023/09/24 01:19:17;;;;;;;0.32;0.32;;;;;;;18.52;66.59;99834.09;5367740;26;33895;-82
2023/09/24 01:21:45;;;;;;;0.70;0.62;;;;;;;18.45;67.11;99842.69;5388558;26;32908;-81
2023/09/24 01:24:13;;;;;;;0.30;0.30;;;;;;;18.49;67.02;99845.00;5367945;26;33633;-82
2023/09/24 01:26:41;;;;;;;1.00;0.98;;;;;;;18.67;66.13;99843.63;5349622;26;33185;-82
2023/09/24 01:29:11;;;;;;;0.70;0.70;;;;;;;18.85;65.60;99840.53;5368320;26;34226;-82
2023/09/24 01:31:39;;;;;;;0.77;0.60;;;;;;;18.88;65.09;99851.81;5367988;26;33990;-82
2023/09/24 01:34:07;;;;;;;0.05;0.05;;;;;;;18.86;64.95;99847.59;5368680;26;34660;-82
2023/09/24 01:36:35;;;;;;;1.55;0.77;;;;;;;18.89;64.99;99858.03;5368046;26;33731;-82
2023/09/24 01:39:03;;;;;;;0.43;0.28;;;;;;;18.82;65.58;99872.84;5350001;26;34573;-82
2023/09/24 01:41:30;;;;;;;1.08;0.75;;;;;;;18.93;65.16;99862.16;5367829;26;34301;-82
2023/09/24 01:43:59;;;;;;;1.12;1.12;;;;;;;18.84;65.47;99861.06;5364300;26;33869;-82
2023/09/24 01:46:27;;;;;;;0.85;0.85;;;;;;;19.00;64.84;99865.25;5345311;26;33803;-82
2023/09/24 01:48:55;;;;;;;0.40;0.35;;;;;;;18.81;65.30;99850.59;5364106;26;34928;-82
2023/09/24 01:51:23;;;;;;;0.52;0.50;;;;;;;18.79;65.66;99854.34;5326559;26;34257;-82
2023/09/24 01:53:51;;;;;;;1.10;0.68;;;;;;;18.77;65.84;99859.00;5326943;26;32876;-81
2023/09/24 01:56:21;;;;;;;0.25;0.25;;;;;;;18.86;65.25;99861.81;5364289;26;33154;-82
2023/09/24 01:58:51;;;;;;;2.05;1.23;;;;;;;18.70;66.07;99857.75;5364204;26;34618;-81
2023/09/24 02:01:19;;;;;;;0.70;0.52;;;;;;;18.86;65.20;99861.81;5343665;26;34051;-81
2023/09/24 02:03:47;;;;;;;1.05;0.98;;;;;;;18.80;65.63;99858.72;5342642;26;33513;-82
2023/09/24 02:06:15;;;;;;;0.75;0.75;;;;;;;18.90;65.41;99854.41;5362869;26;34434;-82
2023/09/24 02:08:43;;;;;;;4.60;0.50;;;;;;;18.77;66.09;99851.81;5327036;26;33221;-82
2023/09/24 02:11:13;;;;;;;0.37;0.25;;;;;;;19.02;65.18;99856.09;5363973;26;34575;-82
2023/09/24 02:13:42;;;;;;;1.80;0.85;;;;;;;18.97;65.33;99860.97;5345733;26;32795;-81
2023/09/24 02:16:11;;;;;;;0.55;0.55;;;;;;;18.90;65.57;99859.75;5363958;26;33727;-82
2023/09/24 02:18:39;;;;;;;0.50;0.45;;;;;;;18.99;65.35;99863.50;5346001;26;33067;-82
2023/09/24 02:21:14;;;;;;;3.33;0.55;;;;;;;19.01;65.07;99857.09;5345849;26;34393;-82
2023/09/24 02:23:42;;;;;;;0.50;0.25;;;;;;;19.14;64.79;99840.94;5346805;26;33862;-82
2023/09/24 02:26:11;;;;;;;0.75;0.20;;;;;;;19.03;64.84;99836.41;5345413;26;34702;-82
2023/09/24 02:28:39;;;;;;;0.40;0.40;;;;;;;19.08;65.10;99828.84;5363274;26;34846;-82
2023/09/24 02:31:07;;;;;;;0.10;0.10;;;;;;;18.98;65.47;99827.03;5326962;26;32924;-82
2023/09/24 02:33:35;;;;;;;1.75;0.70;;;;;;;18.74;66.78;99840.50;5345281;26;35069;-82
2023/09/24 02:36:08;;;;;;;0.20;0.20;;;;;;;18.87;66.65;99838.56;5345679;26;33875;-81
2023/09/24 02:38:36;;;;;;;0.68;0.68;;;;;;;19.00;65.78;99833.97;5345626;26;33987;-81
2023/09/24 02:41:04;;;;;;;0.22;0.20;;;;;;;19.10;65.65;99839.47;5345683;26;33384;-81
2023/09/24 02:43:32;;;;;;;0.82;0.75;;;;;;;19.15;65.14;99847.97;5341603;26;107633;-82
2023/09/24 02:46:03;;;;;;;0.32;0.32;;;;;;;19.05;65.88;99850.53;5345352;26;34703;-81
2023/09/24 02:48:32;;;;;;;1.50;1.12;;;;;;;19.21;64.64;99854.69;5345739;26;34298;-82
2023/09/24 02:51:09;;;;;;;0.22;0.22;;;;;;;19.25;64.30;99853.47;5344693;26;34242;-81
2023/09/24 02:53:37;;;;;;;0.35;0.30;;;;;;;19.17;64.48;99865.63;5345537;26;34174;-82
2023/09/24 02:56:07;;;;;;;0.35;0.35;;;;;;;19.09;64.46;99865.38;5364100;26;32881;-81
2023/09/24 02:58:35;;;;;;;2.05;0.30;;;;;;;19.11;64.56;99863.41;5345780;26;33901;-81
2023/09/24 03:01:03;;;;;;;0.20;0.20;;;;;;;18.87;65.62;99858.16;5344841;26;32369;-81
2023/09/24 03:03:30;;;;;;;0.10;0.10;;;;;;;19.00;65.14;99855.38;5363649;26;34596;-81
2023/09/24 03:05:58;;;;;;;0.75;0.43;;;;;;;18.71;66.19;99844.28;5364255;26;33770;-81
2023/09/24 03:08:26;;;;;;;1.00;0.85;;;;;;;18.63;66.73;99820.75;5365266;26;33749;-81
2023/09/24 03:10:54;;;;;;;0.62;0.62;;;;;;;18.93;65.62;99806.84;5364196;26;34322;-82
2023/09/24 03:13:22;;;;;;;0.55;0.50;;;;;;;18.75;66.17;99818.13;5362686;26;33976;-82
2023/09/24 03:15:49;;;;;;;1.65;0.55;;;;;;;18.66;66.28;99808.97;5345701;26;33917;-83
2023/09/24 03:18:17;;;;;;;0.70;0.70;;;;;;;18.79;66.22;99803.53;5345784;26;32956;-83
2023/09/24 03:20:45;;;;;;;2.05;1.23;;;;;;;18.73;66.13;99801.34;5363756;26;34196;-83
2023/09/24 03:23:13;;;;;;;0.52;0.52;;;;;;;18.60;66.50;99794.22;5326930;26;32818;-82
2023/09/24 03:25:40;;;;;;;0.82;0.82;;;;;;;18.46;67.50;99799.78;5361394;26;33705;-83
2023/09/24 03:28:08;;;;;;;0.93;0.82;;;;;;;18.42;67.18;99809.03;5345787;26;33248;-82
2023/09/24 03:30:36;;;;;;;0.62;0.30;;;;;;;18.49;67.05;99799.56;5363295;26;33204;-83
2023/09/24 03:33:04;;;;;;;0.60;0.50;;;;;;;18.33;67.62;99807.06;5345317;26;34033;-82
2023/09/24 03:35:33;;;;;;;2.17;1.17;;;;;;;18.39;67.66;99823.47;5344724;26;34810;-82
2023/09/24 03:38:01;;;;;;;5.20;0.90;;;;;;;18.50;67.24;99829.81;5363350;26;33920;-83
2023/09/24 03:40:29;;;;;;;0.88;0.82;;;;;;;18.83;66.30;99837.09;5364417;26;33681;-82
2023/09/24 03:42:57;;;;;;;0.88;0.88;;;;;;;18.57;67.07;99842.63;5363876;26;33450;-82
2023/09/24 03:45:25;;;;;;;0.62;0.32;;;;;;;18.49;67.98;99839.66;5367535;26;33347;-83
2023/09/24 03:47:54;;;;;;;0.30;0.25;;;;;;;18.37;68.40;99835.22;5328833;26;33850;-82
2023/09/24 03:50:23;;;;;;;0.50;0.50;;;;;;;18.56;67.23;99819.53;5346642;26;33663;-82
2023/09/24 03:52:51;;;;;;;0.55;0.52;;;;;;;18.55;67.52;99836.50;5365250;26;33024;-82
2023/09/24 03:55:19;;;;;;;2.37;1.17;;;;;;;18.57;67.26;99839.94;5346740;26;32904;-82
2023/09/24 03:57:48;;;;;;;0.17;0.17;;;;;;;18.81;66.69;99836.38;5365528;26;34166;-83
2023/09/24 04:00:18;;;;;;;0.68;0.68;;;;;;;18.62;67.03;99840.44;5365237;26;33589;-83
2023/09/24 04:02:49;;;;;;;0.62;0.62;;;;;;;18.59;67.12;99832.63;5329253;26;33205;-82
2023/09/24 04:05:21;;;;;;;0.85;0.85;;;;;;;18.61;67.56;99836.06;5346713;26;33500;-82
2023/09/24 04:07:53;;;;;;;4.00;0.93;;;;;;;18.50;67.33;99841.34;5347161;26;33196;-82
2023/09/24 04:10:22;;;;;;;0.90;0.50;;;;;;;18.59;67.57;99832.63;5327691;26;34043;-82
2023/09/24 04:12:51;;;;;;;1.67;0.93;;;;;;;18.50;68.17;99840.50;5346575;26;33683;-82
2023/09/24 04:15:27;;;;;;;0.45;0.45;;;;;;;18.59;67.73;99855.84;5365171;26;33947;-82
2023/09/24 04:17:57;;;;;;;0.37;0.37;;;;;;;18.49;68.78;99855.69;5346370;26;33253;-82
2023/09/24 04:20:31;;;;;;;1.23;1.17;;;;;;;18.62;67.95;99867.19;5365089;26;34189;-82
2023/09/24 04:22:59;;;;;;;3.17;1.17;;;;;;;18.60;68.07;99854.88;5385333;26;34001;-82
2023/09/24 04:25:27;;;;;;;5.87;2.55;;;;;;;18.82;67.15;99856.81;5364998;26;35124;-82
2023/09/24 04:27:55;;;;;;;0.50;0.50;;;;;;;18.85;66.50;99851.22;5346836;26;33719;-82
2023/09/24 04:30:24;;;;;;;2.53;0.62;;;;;;;18.73;67.49;99862.88;5365875;26;33229;-81
2023/09/24 04:32:53;;;;;;;0.80;0.80;;;;;;;18.71;67.44;99860.31;5366378;26;34466;-82
2023/09/24 04:35:21;;;;;;;0.60;0.60;;;;;;;18.78;66.77;99866.88;5366202;26;33860;-82
2023/09/24 04:37:50;;;;;;;0.47;0.43;;;;;;;18.60;68.07;99871.78;5328221;26;33320;-82
2023/09/24 04:40:18;;;;;;;0.80;0.80;;;;;;;18.64;68.13;99867.91;5347222;26;33881;-82
2023/09/24 04:42:50;;;;;;;0.40;0.40;;;;;;;18.67;68.20;99873.03;5346899;26;33235;-81
2023/09/24 04:45:18;;;;;;;0.62;0.47;;;;;;;18.71;68.11;99878.19;5365774;26;34564;-82
2023/09/24 04:47:48;;;;;;;0.40;0.35;;;;;;;18.83;67.67;99877.22;5347519;26;34583;-81
2023/09/24 04:50:18;;;;;;;0.70;0.60;;;;;;;18.84;67.78;99878.94;5366310;26;33643;-82
2023/09/24 04:52:47;;;;;;;0.10;0.10;;;;;;;18.90;67.43;99870.47;5347094;26;33097;-81
2023/09/24 04:55:16;;;;;;;1.75;0.22;;;;;;;18.62;68.78;99877.03;5366186;26;34722;-82
2023/09/24 04:57:47;;;;;;;0.60;0.60;;;;;;;18.84;67.76;99871.75;5347308;26;33548;-82
2023/09/24 05:00:16;;;;;;;1.17;0.65;;;;;;;18.92;67.36;99868.50;5365946;26;34166;-80
2023/09/24 05:02:47;;;;;;;0.45;0.45;;;;;;;18.80;68.51;99874.78;5366357;26;35878;-80
2023/09/24 05:05:15;;;;;;;0.10;0.10;;;;;;;18.98;68.06;99868.03;5366435;26;34341;-80
2023/09/24 05:07:43;;;;;;;12.05;1.50;;;;;;;18.86;68.43;99866.31;5328397;26;33923;-81
2023/09/24 05:10:12;;;;;;;1.85;0.55;;;;;;;19.00;67.82;99863.41;5328780;26;32527;-80
2023/09/24 05:12:41;;;;;;;1.35;0.68;;;;;;;19.06;67.31;99870.97;5365998;26;34673;-81
2023/09/24 05:15:09;;;;;;;1.50;0.50;;;;;;;18.94;68.22;99866.53;5346219;26;33329;-81
2023/09/24 05:17:37;;;;;;;0.25;0.22;;;;;;;19.01;67.71;99862.44;5346462;26;34739;-81
2023/09/24 05:20:08;;;;;;;0.62;0.57;;;;;;;18.91;68.34;99874.84;5347064;26;33575;-82
2023/09/24 05:22:36;;;;;;;0.65;0.65;;;;;;;19.02;67.80;99879.34;5346981;26;33224;-81
2023/09/24 05:25:04;;;;;;;0.43;0.43;;;;;;;18.90;68.46;99882.00;5346972;26;35042;-81
2023/09/24 05:27:33;;;;;;;1.23;0.98;;;;;;;19.00;68.00;99870.59;5365739;26;34841;-81
2023/09/24 05:30:02;;;;;;;0.82;0.57;;;;;;;19.00;68.05;99866.09;5365935;26;33585;-81
2023/09/24 05:32:33;;;;;;;1.17;0.40;;;;;;;19.11;67.74;99879.47;5365727;26;33902;-82
2023/09/24 05:35:03;;;;;;;0.40;0.32;;;;;;;19.09;68.06;99881.44;5366145;26;34419;-82
2023/09/24 05:37:30;;;;;;;1.15;0.98;;;;;;;19.16;67.46;99887.16;5328054;26;32858;-82
2023/09/24 05:39:58;;;;;;;0.10;0.10;;;;;;;19.13;67.75;99898.97;5365716;26;33346;-81
2023/09/24 05:42:26;;;;;;;0.45;0.43;;;;;;;19.10;67.93;99899.19;5347226;26;34209;-82
2023/09/24 05:44:55;;;;;;;0.65;0.65;;;;;;;19.09;67.94;99886.78;5365592;26;34001;-82
2023/09/24 05:47:23;;;;;;;0.10;0.10;;;;;;;19.14;68.09;99900.66;5347180;26;32753;-82
2023/09/24 05:49:51;;;;;;;0.32;0.32;;;;;;;19.25;67.51;99896.28;5347136;26;33921;-82
2023/09/24 05:52:18;;;;;;;0.95;0.77;;;;;;;19.23;67.64;99908.94;5365234;26;32833;-82
2023/09/24 05:54:46;;;;;;;1.00;0.82;;;;;;;18.96;69.04;99907.44;5328014;26;34469;-82
2023/09/24 05:57:14;;;;;;;0.55;0.43;;;;;;;18.95;69.76;99912.91;5365578;26;34056;-82
2023/09/24 05:59:42;;;;;;;0.25;0.25;;;;;;;19.01;69.89;99920.47;5364951;26;33458;-82
2023/09/24 06:02:10;;;;;;;0.68;0.68;;;;;;;19.14;69.47;99922.09;5347251;26;33895;-82
2023/09/24 06:04:38;;;;;;;0.73;0.68;;;;;;;19.33;68.53;99926.00;5365639;26;33573;-82
2023/09/24 06:07:06;;;;;;;0.30;0.30;;;;;;;19.14;69.14;99931.94;5365762;26;33563;-82
2023/09/24 06:09:33;;;;;;;0.10;0.10;;;;;;;19.24;68.89;99926.72;5365419;26;34327;-82
2023/09/24 06:12:02;;;;;;;0.37;0.35;;;;;;;19.26;68.42;99932.78;5346797;26;32821;-82
2023/09/24 06:14:31;;;;;;;0.10;0.10;;;;;;;19.09;69.55;99939.47;5347021;26;33186;-82
2023/09/24 06:16:58;;;;;;;0.10;0.10;;;;;;;19.36;68.64;99939.97;5365346;26;34141;-83
2023/09/24 06:19:26;;;;;;;0.10;0.10;;;;;;;19.25;68.72;99953.38;5365860;26;33279;-82
2023/09/24 06:21:54;;;;;;;0.62;0.30;;;;;;;19.19;69.33;99948.50;5346469;26;34796;-82
2023/09/24 06:24:22;;;;;;;0.37;0.37;;;;;;;19.20;69.60;99942.16;5365098;26;33618;-82
2023/09/24 06:26:50;;;;;;;0.22;0.22;;;;;;;19.18;69.43;99939.63;5365258;26;34574;-82
2023/09/24 06:29:17;;;;;;;0.32;0.32;;;;;;;19.63;67.90;99937.00;5385092;26;33164;-82
2023/09/24 06:31:47;;;;;;;0.40;0.40;;;;;;;19.78;67.22;99934.09;5365360;26;34683;-83
2023/09/24 06:34:16;;;;;;;0.28;0.28;;;;;;;19.42;68.29;99936.84;5365350;26;33106;-82
2023/09/24 06:36:44;;;;;;;2.45;0.30;;;;;;;19.24;69.56;99948.13;5346410;26;34106;-82
2023/09/24 06:39:13;;;;;;;0.10;0.10;;;;;;;19.24;70.03;99945.47;5365472;26;33199;-83
2023/09/24 06:41:42;;;;;;;0.52;0.37;;;;;;;19.59;68.76;99959.62;5328404;26;33797;-82
2023/09/24 06:44:11;;;;;;;0.17;0.17;;;;;;;19.47;69.16;99960.59;5347082;26;34411;-82
2023/09/24 06:46:39;;;;;;;0.20;0.10;;;;;;;19.44;69.50;99960.81;5385481;26;33901;-83
2023/09/24 06:49:07;;;;;;;0.45;0.45;;;;;;;19.32;70.18;99967.12;5346370;26;32584;-82
2023/09/24 06:51:35;;;;;;;0.32;0.30;;;;;;;19.33;70.40;99969.69;5365509;26;34489;-83
2023/09/24 06:54:03;;;;;;;0.10;0.10;;;;;;;19.39;70.52;99984.44;5346540;26;34119;-82
2023/09/24 06:56:31;;;;;;;0.37;0.30;;;;;;;19.60;69.62;99988.13;5364204;26;33295;-82
2023/09/24 06:59:09;;;;;;;0.35;0.35;;;;;;;19.58;70.10;99984.69;5344272;26;32661;-82
2023/09/24 07:05:08;;;;;;;0.25;0.10;;;;;;;19.66;69.96;99985.00;5363713;26;32623;-82
2023/09/24 07:07:39;;;;;;;0.25;0.20;;;;;;;19.80;68.88;99988.41;5345976;26;33050;-82
2023/09/24 07:10:07;;;;;;;0.00;0.00;;;;;;;19.67;69.55;99997.41;5327072;26;34157;-83
2023/09/24 07:12:35;;;;;;;2.10;0.93;;;;;;;19.89;68.39;100001.06;5345915;26;33304;-83
2023/09/24 07:15:05;;;;;;;0.17;0.17;;;;;;;19.65;69.84;99995.81;5347211;26;34605;-83
2023/09/24 07:17:33;;;;;;;0.08;0.08;;;;;;;19.80;69.20;99991.09;5364951;26;33757;-84
2023/09/24 07:20:04;;;;;;;0.10;0.10;;;;;;;19.76;69.61;99995.00;5346471;26;32642;-83
2023/09/24 07:22:32;;;;;;;0.60;0.60;;;;;;;19.76;69.43;100001.19;5347034;26;34028;-83
2023/09/24 07:25:00;;;;;;;0.50;0.45;;;;;;;19.75;69.69;100002.19;5345731;26;34077;-84
2023/09/24 07:27:27;;;;;;;3.30;0.10;;;;;;;19.67;70.32;99993.87;5327763;26;33601;-80
2023/09/24 07:29:55;;;;;;;0.30;0.30;;;;;;;19.77;70.30;100002.91;5384571;26;34442;-80
2023/09/24 07:32:23;;;;;;;0.45;0.35;;;;;;;19.84;70.12;99995.22;5384610;26;33969;-80
2023/09/24 07:34:51;;;;;;;0.10;0.10;;;;;;;19.86;70.15;100007.53;5364309;26;34083;-80
2023/09/24 07:37:19;;;;;;;0.52;0.50;;;;;;;19.75;70.35;100007.53;5326423;26;33045;-80
2023/09/24 07:39:49;;;;;;;1.02;0.25;;;;;;;20.07;69.08;100007.63;5346250;26;33725;-80
2023/09/24 07:42:17;;;;;;;0.47;0.47;;;;;;;20.21;68.32;100015.44;5327540;26;33881;-80
2023/09/24 07:44:46;;;;;;;0.13;0.13;;;;;;;20.21;68.18;100012.75;5364497;26;33541;-80
2023/09/24 07:47:14;;;;;;;0.05;0.05;;;;;;;20.40;67.96;100008.59;5345645;26;33291;-81
2023/09/24 07:49:43;;;;;;;0.40;0.40;;;;;;;20.39;68.15;100007.72;5384506;26;33310;-81
2023/09/24 07:52:12;;;;;;;0.73;0.60;;;;;;;20.30;68.63;100013.00;5364218;26;33399;-80
2023/09/24 07:54:40;;;;;;;2.47;0.37;;;;;;;20.26;68.49;100012.38;5363754;26;34117;-80
2023/09/24 07:57:07;;;;;;;0.10;0.10;;;;;;;20.04;69.86;100013.25;5345924;26;33853;-81
2023/09/24 07:59:35;;;;;;;0.20;0.20;;;;;;;20.19;69.12;100012.03;5327554;26;32857;-81
2023/09/24 08:02:03;;;;;;;0.20;0.20;;;;;;;20.17;68.95;100019.34;5327765;26;32955;-79
2023/09/24 08:04:31;;;;;;;0.45;0.45;;;;;;;20.24;68.96;100024.22;5365976;26;33679;-79
2023/09/24 08:06:59;;;;;;;0.13;0.10;;;;;;;20.17;69.22;100024.69;5328071;26;32947;-79
2023/09/24 08:09:28;;;;;;;0.10;0.10;;;;;;;19.92;70.23;100028.47;5364792;26;32549;-79
2023/09/24 08:11:56;;;;;;;0.57;0.30;;;;;;;20.03;69.96;100032.97;5345752;26;32982;-79
2023/09/24 08:14:24;;;;;;;0.00;0.00;;;;;;;20.33;68.54;100018.12;5365692;26;34069;-78
2023/09/24 08:16:53;;;;;;;0.03;0.00;;;;;;;20.26;68.62;100022.25;5346249;26;33030;-80
2023/09/24 08:19:21;;;;;;;0.10;0.10;;;;;;;20.04;69.61;100031.19;5384652;26;34411;-79
2023/09/24 08:21:48;;;;;;;0.00;0.00;;;;;;;19.95;69.58;100027.41;5363958;26;33545;-79
2023/09/24 08:24:16;;;;;;;0.00;0.00;;;;;;;20.12;69.42;100032.25;5345681;26;32703;-79
2023/09/24 08:26:46;;;;;;;0.10;0.10;;;;;;;19.88;70.61;100036.87;5346752;26;33124;-79
2023/09/24 08:29:14;;;;;;;0.10;0.10;;;;;;;19.80;70.22;100037.50;5327081;26;33654;-79
2023/09/24 08:31:42;;;;;;;0.00;0.00;;;;;;;19.97;69.40;100033.47;5346724;26;33522;-79
2023/09/24 08:34:13;;;;;;;0.00;0.00;;;;;;;19.87;69.50;100037.84;5346348;26;33257;-79
2023/09/24 08:36:43;;;;;;;0.00;0.00;;;;;;;19.88;69.19;100039.56;5345907;26;33084;-79
2023/09/24 08:39:14;;;;;;;0.00;0.00;;;;;;;19.88;69.03;100043.09;5365478;26;32727;-79
2023/09/24 08:41:43;;;;;;;0.00;0.00;;;;;;;19.87;68.52;100035.19;5328013;26;33783;-79
2023/09/24 08:44:14;;;;;;;0.00;0.00;;;;;;;19.81;68.34;100041.03;5346912;26;33055;-79
2023/09/24 08:46:45;;;;;;;0.00;0.00;;;;;;;19.48;69.01;100031.91;5364781;26;34439;-80
2023/09/24 08:49:13;;;;;;;0.30;0.30;;;;;;;19.58;68.98;100042.78;5346241;26;34375;-79
2023/09/24 08:51:43;;;;;;;0.10;0.10;;;;;;;19.55;68.85;100038.50;5365656;26;34456;-82
2023/09/24 08:54:11;;;;;;;0.00;0.00;;;;;;;19.41;69.84;100042.22;5364534;26;33972;-82
2023/09/24 08:56:39;;;;;;;0.03;0.03;;;;;;;19.44;69.53;100046.50;5365278;26;34130;-80
2023/09/24 08:59:07;;;;;;;0.00;0.00;;;;;;;19.32;69.93;100053.69;5347271;26;33381;-80
2023/09/24 09:01:35;;;;;;;0.00;0.00;;;;;;;19.37;69.82;100045.25;5346682;26;34498;-80
2023/09/24 09:04:04;;;;;;;0.05;0.00;;;;;;;19.39;69.52;100054.91;5365646;26;33632;-79
2023/09/24 09:06:36;;;;;;;0.00;0.00;;;;;;;19.66;68.52;100056.47;5346686;26;33421;-80
2023/09/24 09:09:04;;;;;;;0.00;0.00;;;;;;;19.70;67.58;100057.91;5346010;26;32910;-80
2023/09/24 09:11:43;;;;;;;0.00;0.00;;;;;;;19.83;67.68;100066.72;5345447;26;33615;-80
2023/09/24 09:14:12;;;;;;;0.55;0.55;;;;;;;19.59;69.06;100049.84;5346336;26;33635;-82
2023/09/24 09:16:57;;;;;;;0.00;0.00;;;;;;;19.71;68.48;100062.31;5345358;26;33569;-82
2023/09/24 09:19:29;;;;;;;0.00;0.00;;;;;;;19.74;68.77;100063.91;5329518;26;34177;-82
2023/09/24 09:22:17;;;;;;;0.20;0.20;;;;;;;19.74;68.78;100061.22;5347577;26;33068;-82
2023/09/24 09:25:00;;;;;;;0.05;0.05;;;;;;;19.84;67.63;100059.53;5347514;26;32894;-83
2023/09/24 09:27:35;;;;;;;0.00;0.00;;;;;;;19.91;67.33;100066.97;5328663;26;34499;-82
2023/09/24 09:30:16;;;;;;;0.00;0.00;;;;;;;19.87;67.55;100073.53;5346442;26;33694;-82
2023/09/24 09:32:45;;;;;;;0.00;0.00;;;;;;;19.50;69.61;100072.81;5347122;26;34374;-82
2023/09/24 09:35:14;;;;;;;0.00;0.00;;;;;;;19.72;67.80;100074.75;5347324;26;33567;-82
2023/09/24 09:37:43;;;;;;;0.00;0.00;;;;;;;19.90;67.25;100080.50;5365509;26;34503;-82
2023/09/24 09:40:11;;;;;;;0.00;0.00;;;;;;;19.59;68.18;100072.13;5346789;26;34779;-81
2023/09/24 09:42:41;;;;;;;1.67;0.22;;;;;;;19.79;67.68;100088.50;5365816;26;34461;-82
2023/09/24 09:45:10;;;;;;;0.00;0.00;;;;;;;19.91;66.61;100085.75;5365891;26;33839;-81
2023/09/24 09:47:50;;;;;;;0.10;0.10;;;;;;;19.76;67.15;100088.75;5345866;26;33339;-82
2023/09/24 09:50:21;;;;;;;0.00;0.00;;;;;;;19.45;69.09;100086.56;5346649;26;33255;-82
2023/09/24 09:52:53;;;;;;;3.42;0.43;;;;;;;19.39;69.14;100092.38;5328336;26;33682;-82
2023/09/24 09:55:23;;;;;;;0.00;0.00;;;;;;;19.74;67.51;100091.53;5365950;26;33231;-82
2023/09/24 09:57:51;;;;;;;1.65;0.68;;;;;;;19.73;67.42;100083.63;5328895;26;33814;-82
2023/09/24 10:00:19;;;;;;;1.02;0.30;;;;;;;19.92;65.90;100097.31;5347163;26;33823;-82
2023/09/24 10:02:48;;;;;;;0.00;0.00;;;;;;;19.51;67.53;100095.94;5346831;26;34932;-82
2023/09/24 10:05:16;;;;;;;0.00;0.00;;;;;;;19.56;67.53;100101.84;5366365;26;34856;-82
2023/09/24 10:07:44;;;;;;;0.17;0.17;;;;;;;19.56;67.77;100104.50;5365061;26;35041;-82
2023/09/24 10:10:31;;;;;;;0.00;0.00;;;;;;;19.58;67.70;100107.06;5346891;26;32956;-82
2023/09/24 10:13:02;;;;;;;0.10;0.08;;;;;;;19.74;66.34;100112.13;5347189;26;34092;-82
2023/09/24 10:15:31;;;;;;;0.52;0.22;;;;;;;19.54;67.88;100109.13;5327549;26;33574;-82
2023/09/24 10:18:11;;;;;;;0.00;0.00;;;;;;;19.71;66.96;100107.88;5346968;26;33042;-82
2023/09/24 10:20:48;;;;;;;0.00;0.00;;;;;;;19.87;66.34;100104.84;5365026;26;34007;-81
2023/09/24 10:23:28;;;;;;;0.00;0.00;;;;;;;19.86;65.98;100112.03;5365330;26;33576;-82
2023/09/24 10:25:59;;;;;;;4.70;0.85;;;;;;;19.67;65.88;100106.41;5346760;26;33950;-82
2023/09/24 10:28:46;;;;;;;0.00;0.00;;;;;;;19.58;66.34;100107.91;5365427;26;33770;-82
2023/09/24 10:31:17;;;;;;;0.00;0.00;;;;;;;19.74;66.10;100112.97;5385015;26;32975;-82
2023/09/24 10:34:01;;;;;;;0.20;0.10;;;;;;;19.49;67.06;100118.47;5347127;26;33665;-82
2023/09/24 10:36:33;;;;;;;0.00;0.00;;;;;;;19.63;66.30;100121.84;5346997;26;33653;-82
2023/09/24 10:39:05;;;;;;;;;;;;;;;19.40;67.35;100120.00;5347102;26;33542;-82
2023/09/24 10:41:35;;;;;;;0.00;0.00;;;;;;;19.68;66.27;100111.63;5346515;26;33789;-82
2023/09/24 10:44:21;;;;;;;0.00;0.00;;;;;;;19.64;66.70;100110.16;5365616;26;34371;-82
2023/09/24 10:46:50;;;;;;;0.10;0.10;;;;;;;19.67;65.99;100119.78;5346710;26;33227;-82
2023/09/24 10:49:26;;;;;;;0.20;0.17;;;;;;;19.47;66.07;100118.59;5347333;26;33736;-82
2023/09/24 10:52:01;;;;;;;0.20;0.20;;;;;;;19.38;66.69;100122.81;5346516;26;33169;-82
2023/09/24 10:54:29;;;;;;;0.10;0.10;;;;;;;19.27;67.63;100116.53;5346947;26;32779;-82
2023/09/24 10:56:57;;;;;;;0.20;0.20;;;;;;;19.38;67.41;100125.50;5347035;26;33644;-82
2023/09/24 10:59:33;;;;;;;0.10;0.10;;;;;;;19.30;67.50;100116.31;5347382;26;34560;-83
2023/09/24 11:02:17;;;;;;;0.00;0.00;;;;;;;19.41;67.53;100117.22;5346691;26;33792;-82
2023/09/24 11:04:48;;;;;;;0.30;0.08;;;;;;;19.58;66.59;100121.31;5329243;26;33037;-82
2023/09/24 11:07:16;;;;;;;0.37;0.22;;;;;;;19.61;65.69;100121.13;5345933;26;33604;-82
2023/09/24 11:09:49;;;;;;;0.00;0.00;;;;;;;19.43;66.92;100114.44;5328090;26;33871;-82
2023/09/24 11:12:17;;;;;;;0.62;0.43;;;;;;;19.49;66.62;100119.31;5365018;26;33149;-83
2023/09/24 11:14:58;;;;;;;0.00;0.00;;;;;;;19.54;66.87;100118.97;5328358;26;34693;-82
2023/09/24 11:17:29;;;;;;;0.00;0.00;;;;;;;19.70;66.15;100127.56;5329600;26;33072;-82
2023/09/24 11:19:57;;;;;;;0.05;0.05;;;;;;;19.60;66.45;100121.22;5346609;26;34567;-82
2023/09/24 11:22:26;;;;;;;0.00;0.00;;;;;;;19.70;66.30;100127.56;5346630;26;33209;-83
2023/09/24 11:25:05;;;;;;;0.00;0.00;;;;;;;19.45;67.09;100126.72;5329372;26;34470;-82
2023/09/24 11:27:47;;;;;;;0.00;0.00;;;;;;;19.54;67.12;100117.16;5327722;26;33628;-83
2023/09/24 11:30:17;;;;;;;0.03;0.00;;;;;;;19.62;66.49;100120.12;5365500;26;34175;-83
2023/09/24 11:32:46;;;;;;;0.00;0.00;;;;;;;19.56;66.87;100133.09;5327871;26;33975;-82
2023/09/24 11:35:25;;;;;;;0.00;0.00;;;;;;;19.68;65.78;100138.41;5346238;26;33324;-83
2023/09/24 11:38:01;;;;;;;0.00;0.00;;;;;;;19.60;65.83;100142.63;5328015;26;34897;-83
2023/09/24 11:40:31;;;;;;;0.00;0.00;;;;;;;19.69;65.95;100142.78;5346593;26;34684;-82
2023/09/24 11:43:11;;;;;;;0.00;0.00;;;;;;;19.67;64.99;100134.03;5328404;26;34800;-83
2023/09/24 11:45:50;;;;;;;0.00;0.00;;;;;;;19.56;66.38;100144.69;5385076;26;33710;-82